Time;durP1;ratioP1;P1;durP2;ratioP2;P2;SDS_P1;SDS_P2;PMS_P1;PMS_P2;Temp;Humidity;BMP_temperature;BMP_pressure;BME280_temperature;BME280_humidity;BME280_pressure;Samples;Min_cycle;Max_cycle;Signal;HPM_P1;HPM_P2
2023/09/26 00:02:05;;;;;;;4.57;2.20;;;;;;;;;;5044991;28;20462;-57
2023/09/26 00:04:31;;;;;;;6.40;2.20;;;;;;;;;;5047529;28;20405;-58
2023/09/26 00:06:59;;;;;;;5.57;2.10;;;;;;;;;;5048343;28;20501;-57
2023/09/26 00:09:26;;;;;;;6.35;2.70;;;;;;;;;;5045274;28;20397;-57
2023/09/26 00:11:52;;;;;;;6.25;2.60;;;;;;;;;;5046401;28;20409;-57
2023/09/26 00:14:17;;;;;;;6.67;2.50;;;;;;;;;;5047067;28;20413;-57
2023/09/26 00:16:42;;;;;;;5.67;2.40;;;;;;;;;;5047522;28;20870;-57
2023/09/26 00:19:07;;;;;;;5.37;2.37;;;;;;;;;;5044840;28;20416;-57
2023/09/26 00:21:32;;;;;;;6.67;2.57;;;;;;;;;;5047827;28;20409;-57
2023/09/26 00:23:58;;;;;;;5.73;2.77;;;;;;;;;;5048196;28;20409;-57
2023/09/26 00:26:23;;;;;;;4.77;2.70;;;;;;;;;;5044188;28;20412;-57
2023/09/26 00:28:48;;;;;;;7.13;2.87;;;;;;;;;;5047523;28;20406;-57
2023/09/26 00:31:13;;;;;;;6.80;2.80;;;;;;;;;;5047173;28;20406;-57
2023/09/26 00:33:39;;;;;;;7.30;3.47;;;;;;;;;;5045816;28;20406;-57
2023/09/26 00:36:06;;;;;;;8.40;3.10;;;;;;;;;;5046108;28;21475;-57
2023/09/26 00:38:32;;;;;;;6.05;2.60;;;;;;;;;;5047805;28;20450;-57
2023/09/26 00:40:57;;;;;;;4.88;2.47;;;;;;;;;;5046199;28;20429;-57
2023/09/26 00:43:22;;;;;;;5.43;2.77;;;;;;;;;;5044571;28;20406;-57
2023/09/26 00:45:51;;;;;;;7.80;2.97;;;;;;;;;;5047432;28;20438;-57
2023/09/26 00:48:16;;;;;;;7.00;2.88;;;;;;;;;;5046211;28;20413;-57
2023/09/26 00:50:41;;;;;;;5.30;2.53;;;;;;;;;;5045724;28;20785;-58
2023/09/26 00:53:06;;;;;;;5.77;2.50;;;;;;;;;;5045813;28;20413;-57
2023/09/26 00:55:32;;;;;;;5.60;2.60;;;;;;;;;;5047595;28;20471;-57
2023/09/26 00:57:57;;;;;;;6.53;2.87;;;;;;;;;;5045082;28;20416;-58
2023/09/26 01:00:23;;;;;;;8.07;2.80;;;;;;;;;;5044346;28;20503;-57
2023/09/26 01:02:48;;;;;;;6.47;2.80;;;;;;;;;;5047090;28;20932;-57
2023/09/26 01:05:13;;;;;;;7.73;2.97;;;;;;;;;;5046481;28;20409;-57
2023/09/26 01:07:39;;;;;;;7.03;3.50;;;;;;;;;;5043788;28;20449;-57
2023/09/26 01:10:05;;;;;;;6.13;3.60;;;;;;;;;;5047047;28;20904;-57
2023/09/26 01:12:31;;;;;;;7.78;3.38;;;;;;;;;;5045688;28;20397;-57
2023/09/26 01:14:56;;;;;;;6.53;3.70;;;;;;;;;;5043314;28;20635;-57
2023/09/26 01:17:21;;;;;;;8.20;4.03;;;;;;;;;;5045657;28;20470;-57
2023/09/26 01:19:46;;;;;;;6.93;4.03;;;;;;;;;;5046563;28;20409;-57
2023/09/26 01:22:13;;;;;;;7.37;4.43;;;;;;;;;;5045195;28;20409;-57
2023/09/26 01:24:39;;;;;;;8.90;4.72;;;;;;;;;;5043688;28;20813;-57
2023/09/26 01:27:04;;;;;;;7.13;3.80;;;;;;;;;;5046457;28;20500;-58
2023/09/26 01:29:29;;;;;;;8.03;4.10;;;;;;;;;;5045773;28;20402;-57
2023/09/26 01:31:55;;;;;;;8.60;4.00;;;;;;;;;;5034090;28;20471;-57
2023/09/26 01:37:23;;;;;;;8.17;3.97;;;;;;;;;;5021394;28;20446;-57
2023/09/26 01:39:48;;;;;;;7.03;3.80;;;;;;;;;;5024347;28;20430;-57
2023/09/26 01:42:13;;;;;;;9.07;4.00;;;;;;;;;;5025773;28;20458;-57
2023/09/26 01:44:38;;;;;;;7.70;4.37;;;;;;;;;;5023600;28;20402;-57
2023/09/26 01:47:04;;;;;;;7.70;4.50;;;;;;;;;;5018035;28;20526;-57
2023/09/26 01:49:29;;;;;;;7.43;4.40;;;;;;;;;;5016477;28;20484;-57
2023/09/26 01:51:55;;;;;;;7.63;4.40;;;;;;;;;;5016996;28;20401;-57
2023/09/26 01:54:20;;;;;;;6.47;3.97;;;;;;;;;;5020608;28;20484;-57
2023/09/26 01:56:45;;;;;;;9.23;5.30;;;;;;;;;;5023891;28;20763;-57
2023/09/26 01:59:10;;;;;;;8.47;4.97;;;;;;;;;;5024824;28;20408;-57
2023/09/26 02:01:36;;;;;;;8.70;4.93;;;;;;;;;;5024305;28;20406;-57
2023/09/26 02:04:01;;;;;;;7.37;4.73;;;;;;;;;;5022249;28;20922;-58
2023/09/26 02:06:26;;;;;;;7.60;4.53;;;;;;;;;;5025672;28;20477;-57
2023/09/26 02:08:51;;;;;;;8.10;4.93;;;;;;;;;;5021500;28;20411;-57
2023/09/26 02:11:17;;;;;;;8.23;5.33;;;;;;;;;;5015029;28;20837;-57
2023/09/26 02:13:42;;;;;;;8.70;4.90;;;;;;;;;;5016450;28;20418;-57
2023/09/26 02:16:11;;;;;;;9.60;5.23;;;;;;;;;;5018778;28;20421;-57
2023/09/26 02:18:36;;;;;;;9.18;4.50;;;;;;;;;;5023409;28;20421;-57
2023/09/26 02:21:01;;;;;;;7.20;4.07;;;;;;;;;;5023552;28;20793;-58
2023/09/26 02:23:27;;;;;;;7.90;4.77;;;;;;;;;;5027155;28;21332;-57
2023/09/26 02:25:52;;;;;;;8.67;5.03;;;;;;;;;;5023775;28;20411;-57
2023/09/26 02:28:18;;;;;;;7.50;4.40;;;;;;;;;;5023668;28;20782;-57
2023/09/26 02:30:44;;;;;;;8.27;4.80;;;;;;;;;;5025693;28;20407;-57
2023/09/26 02:33:09;;;;;;;7.70;4.47;;;;;;;;;;5024154;28;20459;-57
2023/09/26 02:35:34;;;;;;;8.20;5.53;;;;;;;;;;5019161;28;20803;-57
2023/09/26 02:38:00;;;;;;;7.57;5.00;;;;;;;;;;5020287;28;20408;-57
2023/09/26 02:40:25;;;;;;;8.60;5.27;;;;;;;;;;5027769;28;20427;-57
2023/09/26 02:42:50;;;;;;;8.63;5.00;;;;;;;;;;5027332;28;20873;-57
2023/09/26 02:45:16;;;;;;;7.23;4.47;;;;;;;;;;5027831;28;20498;-57
2023/09/26 02:47:42;;;;;;;8.25;5.00;;;;;;;;;;5027875;28;20448;-57
2023/09/26 02:50:07;;;;;;;7.13;5.30;;;;;;;;;;5025983;28;20632;-57
2023/09/26 02:52:33;;;;;;;7.75;5.10;;;;;;;;;;5026979;28;20792;-57
2023/09/26 02:54:58;;;;;;;8.57;4.50;;;;;;;;;;5023451;28;20726;-57
2023/09/26 02:57:23;;;;;;;7.10;4.50;;;;;;;;;;5019812;28;20469;-57
2023/09/26 02:59:48;;;;;;;8.73;4.80;;;;;;;;;;5018552;28;20928;-57
2023/09/26 03:02:14;;;;;;;8.20;5.07;;;;;;;;;;5024565;28;20435;-57
2023/09/26 03:04:39;;;;;;;6.97;4.90;;;;;;;;;;5030571;28;20492;-57
2023/09/26 03:07:04;;;;;;;9.43;5.30;;;;;;;;;;5024869;28;20465;-57
2023/09/26 03:09:31;;;;;;;7.73;5.30;;;;;;;;;;5027183;28;20422;-57
2023/09/26 03:11:56;;;;;;;8.00;5.40;;;;;;;;;;5029873;28;20460;-57
2023/09/26 03:14:21;;;;;;;8.57;5.30;;;;;;;;;;5024801;28;20398;-57
2023/09/26 03:16:47;;;;;;;8.53;5.30;;;;;;;;;;5024538;28;20448;-57
2023/09/26 03:19:12;;;;;;;8.17;5.50;;;;;;;;;;5020448;28;20943;-57
2023/09/26 03:21:37;;;;;;;8.77;5.20;;;;;;;;;;5018059;28;20406;-57
2023/09/26 03:24:03;;;;;;;7.93;5.20;;;;;;;;;;5020816;28;20533;-58
2023/09/26 03:26:28;;;;;;;7.27;5.20;;;;;;;;;;5026364;28;20395;-57
2023/09/26 03:28:53;;;;;;;7.57;5.40;;;;;;;;;;5027381;28;20439;-57
2023/09/26 03:31:18;;;;;;;8.93;5.70;;;;;;;;;;5026190;28;20522;-57
2023/09/26 03:33:44;;;;;;;8.23;5.70;;;;;;;;;;5026640;28;20514;-57
2023/09/26 03:36:09;;;;;;;9.47;5.93;;;;;;;;;;5028013;28;20494;-57
2023/09/26 03:38:34;;;;;;;9.73;5.97;;;;;;;;;;5027222;28;20417;-57
2023/09/26 03:41:00;;;;;;;8.43;5.93;;;;;;;;;;5019710;28;20773;-57
2023/09/26 03:43:26;;;;;;;12.30;6.18;;;;;;;;;;5018675;28;20392;-57
2023/09/26 03:45:51;;;;;;;8.93;5.60;;;;;;;;;;5019250;28;20441;-57
2023/09/26 03:48:16;;;;;;;8.63;5.40;;;;;;;;;;5025089;28;20585;-57
2023/09/26 03:50:46;;;;;;;6.97;4.90;;;;;;;;;;5026772;28;20470;-57
2023/09/26 03:53:11;;;;;;;8.60;5.70;;;;;;;;;;5028734;28;20403;-57
2023/09/26 03:55:36;;;;;;;8.10;5.80;;;;;;;;;;5025631;28;20405;-57
2023/09/26 03:58:02;;;;;;;8.47;5.80;;;;;;;;;;5024650;28;20502;-57
2023/09/26 04:00:28;;;;;;;9.23;5.83;;;;;;;;;;5027974;28;20406;-57
2023/09/26 04:02:56;;;;;;;8.37;5.73;;;;;;;;;;5028165;28;20404;-57
2023/09/26 04:05:21;;;;;;;10.75;6.55;;;;;;;;;;5017176;28;20407;-57
2023/09/26 04:07:46;;;;;;;9.10;6.63;;;;;;;;;;5019521;28;21044;-57
2023/09/26 04:10:12;;;;;;;9.80;5.80;;;;;;;;;;5022174;28;20399;-57
2023/09/26 04:12:37;;;;;;;11.47;6.23;;;;;;;;;;5025574;28;20467;-57
2023/09/26 04:15:02;;;;;;;9.97;6.90;;;;;;;;;;5024782;28;20395;-57
2023/09/26 04:17:29;;;;;;;10.10;6.73;;;;;;;;;;5026933;28;20979;-57
2023/09/26 04:19:54;;;;;;;9.07;6.63;;;;;;;;;;5025020;28;20410;-58
2023/09/26 04:22:19;;;;;;;10.18;6.93;;;;;;;;;;5024166;28;20781;-57
2023/09/26 04:24:45;;;;;;;9.37;6.67;;;;;;;;;;5025067;28;20415;-57
2023/09/26 04:27:10;;;;;;;9.47;6.73;;;;;;;;;;5017974;28;21145;-57
2023/09/26 04:29:35;;;;;;;9.03;6.70;;;;;;;;;;5017939;28;20407;-57
2023/09/26 04:32:00;;;;;;;9.33;6.60;;;;;;;;;;5017359;28;20464;-58
2023/09/26 04:34:27;;;;;;;10.10;7.10;;;;;;;;;;5026251;28;20407;-57
2023/09/26 04:36:53;;;;;;;9.95;6.85;;;;;;;;;;5025015;28;20409;-57
2023/09/26 04:39:18;;;;;;;9.13;6.50;;;;;;;;;;5024006;28;20906;-57
2023/09/26 04:41:45;;;;;;;9.40;6.50;;;;;;;;;;5028164;28;20946;-57
2023/09/26 04:44:10;;;;;;;9.40;6.77;;;;;;;;;;5031324;28;20412;-57
2023/09/26 04:46:36;;;;;;;10.30;7.50;;;;;;;;;;5024514;28;20395;-57
2023/09/26 04:49:01;;;;;;;9.03;7.00;;;;;;;;;;5020279;28;20420;-57
2023/09/26 04:51:26;;;;;;;10.90;7.50;;;;;;;;;;5018289;28;20397;-57
2023/09/26 04:53:51;;;;;;;11.07;8.07;;;;;;;;;;5016185;28;20970;-57
2023/09/26 04:56:17;;;;;;;11.00;8.20;;;;;;;;;;5024330;28;20425;-57
2023/09/26 04:58:42;;;;;;;11.73;7.40;;;;;;;;;;5027441;28;20428;-57
2023/09/26 05:01:12;;;;;;;10.70;7.73;;;;;;;;;;5024260;28;20427;-57
2023/09/26 05:03:37;;;;;;;10.90;7.82;;;;;;;;;;5025302;28;20431;-57
2023/09/26 05:06:04;;;;;;;8.60;7.00;;;;;;;;;;5025987;28;20493;-57
2023/09/26 05:08:29;;;;;;;10.70;6.90;;;;;;;;;;5030782;28;20490;-57
2023/09/26 05:10:54;;;;;;;9.33;6.73;;;;;;;;;;5028133;28;20488;-57
2023/09/26 05:13:19;;;;;;;9.87;6.50;;;;;;;;;;5043439;28;20392;-57
2023/09/26 05:15:45;;;;;;;10.53;7.10;;;;;;;;;;5050576;28;20856;-58
2023/09/26 05:18:10;;;;;;;12.73;7.73;;;;;;;;;;5045568;28;20488;-57
2023/09/26 05:20:36;;;;;;;10.73;6.78;;;;;;;;;;5046090;28;20401;-57
2023/09/26 05:23:03;;;;;;;10.77;7.25;;;;;;;;;;5044793;28;20841;-58
2023/09/26 05:25:28;;;;;;;10.25;7.03;;;;;;;;;;5045306;28;20889;-57
2023/09/26 05:27:53;;;;;;;10.63;7.90;;;;;;;;;;5045654;28;20410;-57
2023/09/26 05:30:18;;;;;;;10.63;7.50;;;;;;;;;;5045809;28;20397;-57
2023/09/26 05:32:44;;;;;;;12.03;7.70;;;;;;;;;;5044142;28;20397;-57
2023/09/26 05:35:09;;;;;;;11.93;8.30;;;;;;;;;;5045162;28;20410;-57
2023/09/26 05:37:35;;;;;;;10.63;8.27;;;;;;;;;;5046068;28;20397;-57
2023/09/26 05:40:00;;;;;;;11.40;8.65;;;;;;;;;;5044319;28;20507;-59
2023/09/26 05:42:26;;;;;;;10.27;7.80;;;;;;;;;;5044876;28;20404;-57
2023/09/26 05:44:51;;;;;;;13.53;9.03;;;;;;;;;;5045793;28;20476;-57
2023/09/26 05:47:16;;;;;;;11.53;8.63;;;;;;;;;;5044665;28;20429;-57
2023/09/26 05:49:42;;;;;;;12.23;9.30;;;;;;;;;;5043391;28;20511;-57
2023/09/26 05:52:07;;;;;;;11.27;8.43;;;;;;;;;;5048222;28;20397;-57
2023/09/26 05:54:33;;;;;;;12.30;8.43;;;;;;;;;;5049311;28;20400;-57
2023/09/26 05:56:58;;;;;;;9.55;8.38;;;;;;;;;;5042776;28;20492;-57
2023/09/26 05:59:24;;;;;;;10.13;8.00;;;;;;;;;;5049129;28;20477;-57
2023/09/26 06:01:49;;;;;;;11.30;7.80;;;;;;;;;;5049953;28;20930;-57
2023/09/26 06:04:15;;;;;;;14.13;9.00;;;;;;;;;;5043559;28;20488;-57
2023/09/26 06:06:40;;;;;;;11.97;8.80;;;;;;;;;;5047088;28;20509;-57
2023/09/26 06:09:05;;;;;;;10.23;7.80;;;;;;;;;;5052811;28;20417;-57
2023/09/26 06:11:30;;;;;;;12.37;9.10;;;;;;;;;;5050940;28;20534;-57
2023/09/26 06:13:56;;;;;;;11.00;8.67;;;;;;;;;;5048552;28;20416;-57
2023/09/26 06:16:21;;;;;;;12.53;8.80;;;;;;;;;;5048888;28;20404;-57
2023/09/26 06:18:47;;;;;;;10.40;7.80;;;;;;;;;;5048826;28;20477;-57
2023/09/26 06:21:14;;;;;;;10.18;7.80;;;;;;;;;;5046867;28;20408;-58
2023/09/26 06:23:39;;;;;;;10.38;7.40;;;;;;;;;;5048398;28;20398;-57
2023/09/26 06:26:04;;;;;;;10.40;7.40;;;;;;;;;;5049409;28;20404;-57
2023/09/26 06:28:29;;;;;;;9.50;7.40;;;;;;;;;;5048309;28;20477;-57
2023/09/26 06:30:56;;;;;;;9.83;7.63;;;;;;;;;;5047488;28;20501;-57
2023/09/26 06:33:21;;;;;;;10.48;7.75;;;;;;;;;;5048957;28;20385;-58
2023/09/26 06:35:46;;;;;;;10.93;7.40;;;;;;;;;;5049057;28;20420;-57
2023/09/26 06:38:11;;;;;;;10.63;7.20;;;;;;;;;;5046286;28;20444;-57
2023/09/26 06:40:37;;;;;;;9.60;7.23;;;;;;;;;;5048488;28;21074;-57
2023/09/26 06:43:02;;;;;;;9.93;7.40;;;;;;;;;;5049359;28;20408;-57
2023/09/26 06:45:28;;;;;;;10.50;7.17;;;;;;;;;;5047005;28;20404;-57
2023/09/26 06:47:53;;;;;;;9.85;7.55;;;;;;;;;;5049214;28;20500;-57
2023/09/26 06:50:19;;;;;;;8.73;6.90;;;;;;;;;;5049141;28;20452;-57
2023/09/26 06:52:44;;;;;;;8.80;7.07;;;;;;;;;;5047961;28;20408;-57
2023/09/26 06:55:10;;;;;;;11.07;7.10;;;;;;;;;;5047548;28;21130;-58
2023/09/26 06:57:36;;;;;;;9.80;6.65;;;;;;;;;;5049775;28;20405;-57
2023/09/26 07:00:05;;;;;;;9.13;6.90;;;;;;;;;;5048204;28;20459;-58
2023/09/26 07:02:30;;;;;;;8.57;6.33;;;;;;;;;;5046960;28;20425;-57
2023/09/26 07:04:56;;;;;;;9.23;6.40;;;;;;;;;;5049391;28;20479;-57
2023/09/26 07:07:22;;;;;;;10.75;6.57;;;;;;;;;;5048116;28;20393;-57
2023/09/26 07:09:48;;;;;;;9.23;6.10;;;;;;;;;;5047505;28;20428;-58
2023/09/26 07:12:13;;;;;;;9.13;6.27;;;;;;;;;;5047763;28;20805;-57
2023/09/26 07:14:38;;;;;;;10.03;6.10;;;;;;;;;;5048782;28;20402;-57
2023/09/26 07:17:04;;;;;;;9.83;5.90;;;;;;;;;;5048162;28;20413;-58
2023/09/26 07:19:31;;;;;;;11.23;6.20;;;;;;;;;;5046414;28;20413;-58
2023/09/26 07:21:56;;;;;;;9.00;5.95;;;;;;;;;;5048065;28;20892;-58
2023/09/26 07:24:21;;;;;;;8.20;5.80;;;;;;;;;;5048316;28;20393;-57
2023/09/26 07:26:47;;;;;;;9.93;5.93;;;;;;;;;;5044996;28;20424;-58
2023/09/26 07:29:12;;;;;;;9.03;5.53;;;;;;;;;;5047806;28;21108;-58
2023/09/26 07:31:39;;;;;;;8.93;5.70;;;;;;;;;;5048922;28;20420;-58
2023/09/26 07:34:04;;;;;;;8.88;5.68;;;;;;;;;;5046449;28;20463;-58
2023/09/26 07:36:30;;;;;;;8.75;5.53;;;;;;;;;;5047248;28;20397;-58
2023/09/26 07:38:55;;;;;;;9.83;5.73;;;;;;;;;;5048810;28;20409;-57
2023/09/26 07:41:20;;;;;;;10.03;5.47;;;;;;;;;;5047347;28;20405;-58
2023/09/26 07:43:45;;;;;;;11.00;5.90;;;;;;;;;;5046590;28;20398;-57
2023/09/26 07:46:11;;;;;;;10.27;5.63;;;;;;;;;;5048056;28;20425;-58
2023/09/26 07:48:37;;;;;;;8.63;5.35;;;;;;;;;;5046546;28;20896;-57
2023/09/26 07:51:03;;;;;;;12.40;5.93;;;;;;;;;;5045946;28;20405;-58
2023/09/26 07:53:28;;;;;;;9.27;5.80;;;;;;;;;;5048027;28;20401;-58
2023/09/26 07:55:54;;;;;;;10.00;5.63;;;;;;;;;;5047551;28;20414;-57
2023/09/26 07:58:20;;;;;;;9.88;5.57;;;;;;;;;;5047088;28;20900;-58
2023/09/26 08:00:45;;;;;;;9.32;5.90;;;;;;;;;;5046535;28;20417;-58
2023/09/26 08:03:10;;;;;;;10.70;6.10;;;;;;;;;;5046904;28;20416;-58
2023/09/26 08:05:36;;;;;;;8.40;5.90;;;;;;;;;;5048299;28;20397;-58
2023/09/26 08:08:04;;;;;;;9.17;5.90;;;;;;;;;;5045274;28;20489;-58
2023/09/26 08:10:29;;;;;;;8.73;5.77;;;;;;;;;;5047141;28;20469;-58
2023/09/26 08:12:55;;;;;;;8.90;6.13;;;;;;;;;;5047974;28;20480;-57
2023/09/26 08:15:20;;;;;;;9.63;6.70;;;;;;;;;;5045939;28;20457;-58
2023/09/26 08:17:45;;;;;;;10.30;6.90;;;;;;;;;;5046376;28;20412;-57
2023/09/26 08:20:11;;;;;;;8.07;5.60;;;;;;;;;;5047458;28;20405;-58
2023/09/26 08:22:36;;;;;;;11.37;6.17;;;;;;;;;;5047035;28;20752;-58
2023/09/26 08:25:02;;;;;;;8.77;6.17;;;;;;;;;;5045035;28;20398;-58
2023/09/26 08:27:28;;;;;;;9.70;6.03;;;;;;;;;;5047228;28;20451;-57
2023/09/26 08:29:53;;;;;;;8.40;5.83;;;;;;;;;;5046836;28;20884;-57
2023/09/26 08:32:18;;;;;;;9.00;6.07;;;;;;;;;;5044343;28;20412;-57
2023/09/26 08:34:43;;;;;;;12.17;6.60;;;;;;;;;;5047441;28;20483;-57
2023/09/26 08:37:10;;;;;;;10.30;6.57;;;;;;;;;;5047151;28;20448;-58
2023/09/26 08:39:35;;;;;;;7.78;6.10;;;;;;;;;;5046137;28;20401;-57
2023/09/26 08:42:00;;;;;;;10.13;6.30;;;;;;;;;;5045923;28;20480;-59
2023/09/26 08:44:26;;;;;;;8.93;6.10;;;;;;;;;;5046681;28;20405;-57
2023/09/26 08:46:51;;;;;;;10.30;6.40;;;;;;;;;;5046876;28;20409;-58
2023/09/26 08:49:16;;;;;;;9.43;6.17;;;;;;;;;;5043810;28;20424;-57
2023/09/26 08:51:41;;;;;;;8.63;6.03;;;;;;;;;;5046721;28;20470;-57
2023/09/26 08:54:07;;;;;;;7.53;5.80;;;;;;;;;;5046774;28;20405;-58
2023/09/26 08:56:32;;;;;;;9.00;6.37;;;;;;;;;;5045409;28;20401;-57
2023/09/26 08:58:57;;;;;;;9.40;5.97;;;;;;;;;;5045760;28;20393;-57
2023/09/26 09:01:23;;;;;;;8.13;5.97;;;;;;;;;;5046822;28;20396;-57
2023/09/26 09:03:48;;;;;;;8.40;5.35;;;;;;;;;;5044905;28;20405;-57
2023/09/26 09:06:13;;;;;;;9.13;6.00;;;;;;;;;;5044606;28;20433;-58
2023/09/26 09:08:39;;;;;;;9.30;5.33;;;;;;;;;;5047257;28;20859;-57
2023/09/26 09:11:04;;;;;;;8.70;5.20;;;;;;;;;;5044971;28;20405;-58
2023/09/26 09:13:30;;;;;;;11.23;5.77;;;;;;;;;;5043672;28;20405;-57
2023/09/26 09:16:11;;;;;;;9.87;5.90;;;;;;;;;;5047274;28;20957;-58
2023/09/26 09:18:37;;;;;;;9.30;5.30;;;;;;;;;;5046508;28;20793;-58
2023/09/26 09:21:21;;;;;;;8.98;5.63;;;;;;;;;;5044665;28;20408;-58
2023/09/26 09:23:46;;;;;;;8.18;5.22;;;;;;;;;;5044504;28;20463;-57
2023/09/26 09:26:12;;;;;;;9.35;5.50;;;;;;;;;;5046245;28;20420;-58
2023/09/26 09:28:37;;;;;;;7.68;5.65;;;;;;;;;;5046279;28;20485;-57
2023/09/26 09:31:02;;;;;;;8.57;5.63;;;;;;;;;;5044541;28;20845;-58
2023/09/26 09:33:28;;;;;;;8.43;5.83;;;;;;;;;;5046204;28;20400;-57
2023/09/26 09:35:53;;;;;;;9.73;5.40;;;;;;;;;;5045955;28;20405;-57
2023/09/26 09:38:18;;;;;;;10.07;5.80;;;;;;;;;;5045416;28;20451;-58
2023/09/26 09:40:44;;;;;;;8.37;5.40;;;;;;;;;;5045222;28;20424;-58
2023/09/26 09:43:09;;;;;;;9.27;5.50;;;;;;;;;;5050265;28;20923;-58
2023/09/26 09:45:34;;;;;;;9.00;5.90;;;;;;;;;;5049597;28;20401;-58
2023/09/26 09:48:02;;;;;;;8.57;5.13;;;;;;;;;;5047597;28;20830;-58
2023/09/26 09:50:27;;;;;;;7.47;5.23;;;;;;;;;;5050630;28;20399;-58
2023/09/26 09:52:53;;;;;;;9.02;5.10;;;;;;;;;;5050809;28;20468;-58
2023/09/26 09:55:19;;;;;;;7.87;5.20;;;;;;;;;;5046365;28;20417;-58
2023/09/26 09:57:45;;;;;;;6.90;4.68;;;;;;;;;;5049697;28;20444;-58
2023/09/26 10:00:11;;;;;;;10.80;5.47;;;;;;;;;;5049745;28;20418;-57
2023/09/26 10:02:36;;;;;;;9.80;4.93;;;;;;;;;;5049133;28;20477;-58
2023/09/26 10:05:05;;;;;;;9.17;4.87;;;;;;;;;;5048415;28;20405;-58
2023/09/26 10:07:31;;;;;;;7.28;5.20;;;;;;;;;;5050345;28;20884;-58
2023/09/26 10:09:56;;;;;;;7.50;4.83;;;;;;;;;;5049954;28;20480;-58
2023/09/26 10:12:23;;;;;;;7.93;4.80;;;;;;;;;;5046217;28;20795;-58
2023/09/26 10:14:48;;;;;;;8.38;5.20;;;;;;;;;;5049731;28;20412;-58
2023/09/26 10:17:14;;;;;;;8.93;5.20;;;;;;;;;;5049371;28;20413;-58
2023/09/26 10:19:39;;;;;;;8.02;5.10;;;;;;;;;;5047821;28;20397;-58
2023/09/26 10:22:12;;;;;;;8.10;4.97;;;;;;;;;;5048292;28;20779;-58
2023/09/26 10:24:44;;;;;;;8.80;5.60;;;;;;;;;;5049458;28;20409;-58
2023/09/26 10:27:09;;;;;;;7.65;5.00;;;;;;;;;;5049499;28;20495;-58
2023/09/26 10:29:36;;;;;;;9.37;5.10;;;;;;;;;;5047416;28;20398;-58
2023/09/26 10:32:04;;;;;;;7.88;4.60;;;;;;;;;;5047594;28;20433;-58
2023/09/26 10:34:30;;;;;;;11.63;5.30;;;;;;;;;;5049670;28;20459;-58
2023/09/26 10:36:56;;;;;;;8.37;5.30;;;;;;;;;;5048131;28;20401;-58
2023/09/26 10:39:32;;;;;;;7.95;5.05;;;;;;;;;;5047917;28;20938;-58
2023/09/26 10:42:07;;;;;;;7.63;4.97;;;;;;;;;;5049792;28;20433;-58
2023/09/26 10:44:33;;;;;;;7.53;4.60;;;;;;;;;;5048106;28;20491;-58
2023/09/26 10:46:58;;;;;;;6.50;4.17;;;;;;;;;;5047878;28;20983;-58
2023/09/26 10:49:23;;;;;;;7.10;4.70;;;;;;;;;;5048626;28;20417;-58
2023/09/26 10:51:48;;;;;;;7.97;4.93;;;;;;;;;;5048666;28;20397;-58
2023/09/26 10:54:14;;;;;;;6.67;4.80;;;;;;;;;;5047465;28;20406;-58
2023/09/26 10:56:45;;;;;;;8.70;5.03;;;;;;;;;;5047934;28;20397;-58
2023/09/26 10:59:10;;;;;;;8.77;4.97;;;;;;;;;;5046437;28;20448;-58
2023/09/26 11:01:36;;;;;;;7.67;4.67;;;;;;;;;;5047773;28;20448;-58
2023/09/26 11:04:01;;;;;;;7.95;4.32;;;;;;;;;;5052020;28;20406;-58
2023/09/26 11:06:26;;;;;;;8.57;4.47;;;;;;;;;;5046706;28;20532;-58
2023/09/26 11:08:52;;;;;;;6.77;4.23;;;;;;;;;;5049892;28;20410;-58
2023/09/26 11:11:18;;;;;;;6.57;4.20;;;;;;;;;;5048316;28;20901;-59
2023/09/26 11:13:44;;;;;;;6.53;3.90;;;;;;;;;;5044901;28;20413;-58
2023/09/26 11:16:09;;;;;;;7.60;3.90;;;;;;;;;;5048686;28;20402;-58
2023/09/26 11:18:34;;;;;;;6.50;4.07;;;;;;;;;;5049342;28;20806;-58
2023/09/26 11:21:00;;;;;;;5.77;3.83;;;;;;;;;;5046436;28;20397;-58
2023/09/26 11:23:33;;;;;;;6.22;3.88;;;;;;;;;;5048319;28;20409;-58
2023/09/26 11:26:03;;;;;;;7.97;4.05;;;;;;;;;;5048593;28;20405;-58
2023/09/26 11:28:28;;;;;;;6.22;4.07;;;;;;;;;;5047835;28;20907;-58
2023/09/26 11:30:54;;;;;;;8.23;4.00;;;;;;;;;;5046575;28;20405;-58
2023/09/26 11:33:20;;;;;;;6.63;4.30;;;;;;;;;;5046416;28;21046;-58
2023/09/26 11:35:45;;;;;;;6.77;4.17;;;;;;;;;;5048535;28;20398;-58
2023/09/26 11:38:11;;;;;;;11.53;4.30;;;;;;;;;;5046443;28;20397;-58
2023/09/26 11:40:36;;;;;;;7.57;4.13;;;;;;;;;;5047497;28;20397;-58
2023/09/26 11:43:03;;;;;;;7.03;3.97;;;;;;;;;;5048271;28;20908;-58
2023/09/26 11:45:28;;;;;;;7.20;3.80;;;;;;;;;;5047191;28;20398;-58
2023/09/26 11:47:56;;;;;;;7.93;4.07;;;;;;;;;;5046395;28;20768;-58
2023/09/26 11:50:22;;;;;;;8.70;4.90;;;;;;;;;;5047899;28;20419;-58
2023/09/26 11:52:47;;;;;;;7.30;4.30;;;;;;;;;;5048304;28;20397;-58
2023/09/26 11:55:16;;;;;;;6.73;4.83;;;;;;;;;;5044900;28;20414;-58
2023/09/26 11:57:41;;;;;;;9.45;5.05;;;;;;;;;;5048454;28;20424;-58
2023/09/26 12:00:11;;;;;;;7.70;4.97;;;;;;;;;;5047240;28;20912;-58
2023/09/26 12:02:38;;;;;;;8.43;4.80;;;;;;;;;;5046068;28;20398;-58
2023/09/26 12:05:03;;;;;;;9.43;5.10;;;;;;;;;;5046594;28;20445;-58
2023/09/26 12:07:29;;;;;;;8.68;5.20;;;;;;;;;;5047869;28;20444;-58
2023/09/26 12:09:54;;;;;;;8.53;5.73;;;;;;;;;;5047137;28;20390;-58
2023/09/26 12:12:21;;;;;;;10.60;6.20;;;;;;;;;;5044646;28;21435;-58
2023/09/26 12:14:48;;;;;;;11.25;6.25;;;;;;;;;;5048175;28;20405;-58
2023/09/26 12:17:13;;;;;;;10.18;5.70;;;;;;;;;;5046933;28;20405;-58
2023/09/26 12:19:39;;;;;;;11.67;6.00;;;;;;;;;;5046410;28;20448;-58
2023/09/26 12:22:04;;;;;;;13.40;5.60;;;;;;;;;;5046795;28;20436;-58
2023/09/26 12:24:29;;;;;;;9.50;5.70;;;;;;;;;;5047453;28;20498;-58
2023/09/26 12:26:55;;;;;;;10.33;5.80;;;;;;;;;;5046867;28;20912;-58
2023/09/26 12:29:20;;;;;;;10.00;5.73;;;;;;;;;;5045651;28;20401;-58
2023/09/26 12:31:45;;;;;;;9.37;5.50;;;;;;;;;;5046752;28;20811;-58
2023/09/26 12:34:11;;;;;;;9.23;5.07;;;;;;;;;;5047643;28;20872;-58
2023/09/26 12:36:36;;;;;;;9.50;5.20;;;;;;;;;;5044297;28;20547;-58
2023/09/26 12:39:02;;;;;;;6.93;4.20;;;;;;;;;;5047450;28;20406;-58
2023/09/26 12:41:28;;;;;;;7.30;4.40;;;;;;;;;;5043055;28;20408;-58
2023/09/26 12:43:53;;;;;;;6.88;3.60;;;;;;;;;;5044472;28;20417;-58
2023/09/26 12:46:18;;;;;;;7.13;3.70;;;;;;;;;;5045535;28;20488;-59
2023/09/26 12:48:43;;;;;;;8.00;2.93;;;;;;;;;;5046917;28;20413;-58
2023/09/26 12:51:09;;;;;;;5.63;2.60;;;;;;;;;;5044126;28;20397;-58
2023/09/26 12:53:35;;;;;;;5.50;2.43;;;;;;;;;;5045446;28;20408;-58
2023/09/26 12:56:00;;;;;;;5.37;2.60;;;;;;;;;;5047042;28;20409;-58
2023/09/26 12:58:25;;;;;;;3.73;2.30;;;;;;;;;;5046517;28;20421;-58
2023/09/26 13:00:50;;;;;;;6.97;2.50;;;;;;;;;;5044678;28;20452;-58
2023/09/26 13:03:16;;;;;;;5.37;2.27;;;;;;;;;;5046164;28;20401;-58
2023/09/26 13:05:41;;;;;;;5.50;2.67;;;;;;;;;;5046793;28;20402;-58
2023/09/26 13:08:06;;;;;;;6.67;2.30;;;;;;;;;;5045289;28;20480;-58
2023/09/26 13:10:31;;;;;;;6.20;2.50;;;;;;;;;;5046017;28;20401;-58
2023/09/26 13:12:57;;;;;;;6.40;2.80;;;;;;;;;;5046350;28;20404;-58
2023/09/26 13:15:22;;;;;;;5.47;2.83;;;;;;;;;;5045306;28;20389;-58
2023/09/26 13:17:47;;;;;;;6.43;2.70;;;;;;;;;;5044760;28;20425;-58
2023/09/26 13:20:13;;;;;;;5.63;2.97;;;;;;;;;;5046461;28;20414;-58
2023/09/26 13:22:39;;;;;;;6.53;3.00;;;;;;;;;;5046874;28;20455;-58
2023/09/26 13:25:05;;;;;;;5.90;3.20;;;;;;;;;;5044480;28;20409;-58
2023/09/26 13:27:30;;;;;;;5.07;3.00;;;;;;;;;;5045435;28;20455;-58
2023/09/26 13:29:56;;;;;;;5.30;3.20;;;;;;;;;;5047037;28;20397;-58
2023/09/26 13:32:21;;;;;;;5.67;3.40;;;;;;;;;;5042585;28;20393;-58
2023/09/26 13:34:47;;;;;;;6.50;3.40;;;;;;;;;;5022299;28;20421;-58
2023/09/26 13:37:12;;;;;;;6.53;2.77;;;;;;;;;;5021023;28;20415;-58
2023/09/26 13:39:37;;;;;;;5.00;3.10;;;;;;;;;;5021436;28;21004;-58
2023/09/26 13:42:03;;;;;;;6.53;3.40;;;;;;;;;;5030320;28;20496;-58
2023/09/26 13:44:28;;;;;;;5.40;3.33;;;;;;;;;;5028286;28;20412;-58
2023/09/26 13:46:54;;;;;;;6.33;3.37;;;;;;;;;;5027593;28;20403;-58
2023/09/26 13:49:19;;;;;;;6.83;3.23;;;;;;;;;;5029791;28;20919;-58
2023/09/26 13:51:44;;;;;;;7.93;3.57;;;;;;;;;;5034950;28;20637;-58
2023/09/26 13:54:10;;;;;;;7.05;3.60;;;;;;;;;;5026805;28;20876;-58
2023/09/26 13:56:35;;;;;;;6.90;3.67;;;;;;;;;;5029326;28;20430;-58
2023/09/26 13:59:00;;;;;;;7.90;3.60;;;;;;;;;;5020664;28;20991;-59
2023/09/26 14:01:25;;;;;;;5.90;3.60;;;;;;;;;;5021638;28;20416;-58
2023/09/26 14:03:51;;;;;;;5.82;3.50;;;;;;;;;;5025434;28;20724;-58
2023/09/26 14:06:17;;;;;;;6.88;3.15;;;;;;;;;;5030023;28;20409;-58
2023/09/26 14:08:42;;;;;;;7.20;3.23;;;;;;;;;;5035084;28;20932;-58
2023/09/26 14:11:08;;;;;;;7.43;3.63;;;;;;;;;;5035606;28;20463;-58
2023/09/26 14:13:34;;;;;;;6.25;3.45;;;;;;;;;;5029204;28;21006;-58
2023/09/26 14:15:59;;;;;;;7.37;3.50;;;;;;;;;;5028544;28;20418;-58
2023/09/26 14:18:24;;;;;;;7.47;3.70;;;;;;;;;;5024904;28;21193;-58
2023/09/26 14:20:50;;;;;;;6.93;2.97;;;;;;;;;;5020762;28;20550;-58
2023/09/26 14:23:15;;;;;;;6.83;3.40;;;;;;;;;;5020593;28;20997;-58
2023/09/26 14:25:40;;;;;;;6.83;3.70;;;;;;;;;;5022557;28;20850;-58
2023/09/26 14:28:06;;;;;;;6.67;3.47;;;;;;;;;;5030025;28;20415;-58
2023/09/26 14:30:32;;;;;;;6.20;3.70;;;;;;;;;;5032553;28;20836;-58
2023/09/26 14:32:57;;;;;;;7.30;3.85;;;;;;;;;;5031313;28;20407;-58
2023/09/26 14:35:23;;;;;;;6.13;3.67;;;;;;;;;;5030511;28;20400;-58